地図

経路データ

SID SEASON NUMBER BASIN SUBBASIN NAME ISO_TIME NATURE LAT LON WMO_WIND WMO_PRES WMO_AGENCY TRACK_TYPE DIST2LAND LANDFALL IFLAG USA_AGENCY USA_ATCF_ID USA_LAT USA_LON USA_RECORD USA_STATUS USA_WIND USA_PRES USA_SSHS USA_R34_NE USA_R34_SE USA_R34_SW USA_R34_NW USA_R50_NE USA_R50_SE USA_R50_SW USA_R50_NW USA_R64_NE USA_R64_SE USA_R64_SW USA_R64_NW USA_POCI USA_ROCI USA_RMW USA_EYE TOKYO_LAT TOKYO_LON TOKYO_GRADE TOKYO_WIND TOKYO_PRES TOKYO_R50_DIR TOKYO_R50_LONG TOKYO_R50_SHORT TOKYO_R30_DIR TOKYO_R30_LONG TOKYO_R30_SHORT TOKYO_LAND CMA_LAT CMA_LON CMA_CAT CMA_WIND CMA_PRES HKO_LAT HKO_LON HKO_CAT HKO_WIND HKO_PRES NEWDELHI_LAT NEWDELHI_LON NEWDELHI_GRADE NEWDELHI_WIND NEWDELHI_PRES NEWDELHI_CI NEWDELHI_DP NEWDELHI_POCI REUNION_LAT REUNION_LON REUNION_TYPE REUNION_WIND REUNION_PRES REUNION_TNUM REUNION_CI REUNION_RMW REUNION_R34_NE REUNION_R34_SE REUNION_R34_SW REUNION_R34_NW REUNION_R50_NE REUNION_R50_SE REUNION_R50_SW REUNION_R50_NW REUNION_R64_NE REUNION_R64_SE REUNION_R64_SW REUNION_R64_NW BOM_LAT BOM_LON BOM_TYPE BOM_WIND BOM_PRES BOM_TNUM BOM_CI BOM_RMW BOM_R34_NE BOM_R34_SE BOM_R34_SW BOM_R34_NW BOM_R50_NE BOM_R50_SE BOM_R50_SW BOM_R50_NW BOM_R64_NE BOM_R64_SE BOM_R64_SW BOM_R64_NW BOM_ROCI BOM_POCI BOM_EYE BOM_POS_METHOD BOM_PRES_METHOD NADI_LAT NADI_LON NADI_CAT NADI_WIND NADI_PRES WELLINGTON_LAT WELLINGTON_LON WELLINGTON_WIND WELLINGTON_PRES DS824_LAT DS824_LON DS824_STAGE DS824_WIND DS824_PRES TD9636_LAT TD9636_LON TD9636_STAGE TD9636_WIND TD9636_PRES TD9635_LAT TD9635_LON TD9635_WIND TD9635_PRES TD9635_ROCI NEUMANN_LAT NEUMANN_LON NEUMANN_CLASS NEUMANN_WIND NEUMANN_PRES MLC_LAT MLC_LON MLC_CLASS MLC_WIND MLC_PRES USA_GUST BOM_GUST BOM_GUST_PER REUNION_GUST REUNION_GUST_PER USA_SEAHGT USA_SEARAD_NE USA_SEARAD_SE USA_SEARAD_SW USA_SEARAD_NW STORM_SPEED STORM_DIR
1918175N11139 1918 37 WP MM NOT_NAMED 1918-06-24 10:00:00 NR 10.8000 139.400 main 1355 1352 __________O___ -1 10.8000 139.400 4 2 273
1918175N11139 1918 37 WP MM NOT_NAMED 1918-06-24 12:00:00 NR 10.8024 139.343 main 1352 1348 __________P___ -1 10.8024 139.343 4 2 274
1918175N11139 1918 37 WP MM NOT_NAMED 1918-06-24 15:00:00 NR 10.8115 139.234 main 1348 1345 __________P___ -1 10.8115 139.234 4 3 277
1918175N11139 1918 37 WP MM NOT_NAMED 1918-06-24 18:00:00 NR 10.8342 139.069 main 1345 1342 __________P___ -1 10.8342 139.069 4 4 279
1918175N11139 1918 37 WP MM NOT_NAMED 1918-06-24 21:00:00 NR 10.8789 138.812 main 1347 1344 __________P___ -1 10.8789 138.812 4 6 280
1918175N11139 1918 37 WP MM NOT_NAMED 1918-06-24 22:00:00 NR 10.9000 138.700 main 1344 1338 __________O___ -1 10.9000 138.700 4 8 281
1918175N11139 1918 37 WP MM NOT_NAMED 1918-06-25 00:00:00 NR 10.9524 138.433 main 1347 1294 __________P___ -1 10.9524 138.433 4 9 281
1918175N11139 1918 37 WP MM NOT_NAMED 1918-06-25 03:00:00 NR 11.0498 137.943 main 1294 1243 __________P___ -1 11.0498 137.943 4 11 281
1918175N11139 1918 37 WP MM NOT_NAMED 1918-06-25 06:00:00 NR 11.1586 137.384 main 1245 1184 __________P___ -1 11.1586 137.384 4 11 281
1918175N11139 1918 37 WP MM NOT_NAMED 1918-06-25 09:00:00 NR 11.2664 136.796 main 1184 1162 __________P___ -1 11.2664 136.796 4 12 280
1918175N11139 1918 37 WP MM NOT_NAMED 1918-06-25 10:00:00 NR 11.3000 136.600 main 1162 1130 __________O___ -1 11.3000 136.600 4 11 278
1918175N11139 1918 37 WP MM NOT_NAMED 1918-06-25 12:00:00 NR 11.3449 136.252 main 1130 1068 __________P___ -1 11.3449 136.252 4 10 277
1918175N11139 1918 37 WP MM NOT_NAMED 1918-06-25 15:00:00 NR 11.4058 135.724 main 1068 1018 __________P___ -1 11.4058 135.724 4 11 277
1918175N11139 1918 37 WP MM NOT_NAMED 1918-06-25 18:00:00 NR 11.4731 135.178 main 1018 957 __________P___ -1 11.4731 135.178 4 11 278
1918175N11139 1918 37 WP MM NOT_NAMED 1918-06-25 21:00:00 NR 11.5626 134.601 main 957 936 __________P___ -1 11.5626 134.601 4 12 279
1918175N11139 1918 37 WP MM NOT_NAMED 1918-06-25 22:00:00 NR 11.6000 134.400 main 936 898 __________O___ -1 11.6000 134.400 4 12 283
1918175N11139 1918 37 WP MM NOT_NAMED 1918-06-26 00:00:00 NR 11.6962 133.989 main 898 824 __________P___ -1 11.6962 133.989 4 13 284
1918175N11139 1918 37 WP MM NOT_NAMED 1918-06-26 03:00:00 NR 11.8659 133.341 main 824 760 __________P___ -1 11.8659 133.341 4 14 285
1918175N11139 1918 37 WP MM NOT_NAMED 1918-06-26 06:00:00 NR 12.0522 132.659 main 762 678 __________P___ -1 12.0522 132.659 4 14 285
1918175N11139 1918 37 WP MM NOT_NAMED 1918-06-26 09:00:00 NR 12.2399 131.945 main 678 659 __________P___ -1 12.2399 131.945 4 15 285
1918175N11139 1918 37 WP MM NOT_NAMED 1918-06-26 10:00:00 NR 12.3000 131.700 main 659 608 __________O___ -1 12.3000 131.700 4 16 282
1918175N11139 1918 37 WP MM NOT_NAMED 1918-06-26 12:00:00 NR 12.4062 131.167 main 608 521 __________P___ -1 12.4062 131.167 4 16 281
1918175N11139 1918 37 WP MM NOT_NAMED 1918-06-26 15:00:00 NR 12.5591 130.341 main 521 438 __________P___ -1 12.5591 130.341 4 16 281
1918175N11139 1918 37 WP MM NOT_NAMED 1918-06-26 18:00:00 NR 12.7065 129.537 main 438 364 __________P___ -1 12.7065 129.537 4 15 281
1918175N11139 1918 37 WP MM NOT_NAMED 1918-06-26 21:00:00 NR 12.8516 128.813 main 366 345 __________P___ -1 12.8516 128.813 4 14 282
1918175N11139 1918 37 WP MM NOT_NAMED 1918-06-26 22:00:00 NR 12.9000 128.600 main 345 316 __________O___ -1 12.9000 128.600 4 11 285
1918175N11139 1918 37 WP MM NOT_NAMED 1918-06-27 00:00:00 NR 12.9936 128.258 main 316 269 __________P___ -1 12.9936 128.258 4 9 288
1918175N11139 1918 37 WP MM NOT_NAMED 1918-06-27 03:00:00 NR 13.1348 127.840 main 269 249 __________P___ -1 13.1348 127.840 4 8 291
1918175N11139 1918 37 WP MM NOT_NAMED 1918-06-27 06:00:00 NR 13.2826 127.483 main 249 219 __________P___ -1 13.2826 127.483 4 8 294
1918175N11139 1918 37 WP MM NOT_NAMED 1918-06-27 09:00:00 NR 13.4428 127.128 main 219 218 __________P___ -1 13.4428 127.128 4 8 295
1918175N11139 1918 37 WP MM NOT_NAMED 1918-06-27 10:00:00 NR 13.5000 127.000 main 218 202 __________O___ -1 13.5000 127.000 4 10 293
1918175N11139 1918 37 WP MM NOT_NAMED 1918-06-27 12:00:00 NR 13.6300 126.669 main 202 175 __________P___ -1 13.6300 126.669 4 11 292
1918175N11139 1918 37 WP MM NOT_NAMED 1918-06-27 15:00:00 NR 13.8378 126.146 main 175 130 __________P___ -1 13.8378 126.146 4 11 292
1918175N11139 1918 37 WP MM NOT_NAMED 1918-06-27 18:00:00 NR 14.0467 125.626 main 130 82 __________P___ -1 14.0467 125.626 4 11 293
1918175N11139 1918 37 WP MM NOT_NAMED 1918-06-27 21:00:00 NR 14.2411 125.145 main 82 78 __________P___ -1 14.2411 125.145 4 10 293
1918175N11139 1918 37 WP MM NOT_NAMED 1918-06-27 22:00:00 NR 14.3000 125.000 main 78 62 __________O___ -1 14.3000 125.000 4 8 292
1918175N11139 1918 37 WP MM NOT_NAMED 1918-06-28 00:00:00 NR 14.3948 124.746 main 62 55 __________P___ -1 14.3948 124.746 4 7 291
1918175N11139 1918 37 WP MM NOT_NAMED 1918-06-28 03:00:00 NR 14.5184 124.416 main 57 55 __________P___ -1 14.5184 124.416 4 6 292
1918175N11139 1918 37 WP MM NOT_NAMED 1918-06-28 06:00:00 NR 14.6334 124.132 main 67 67 __________P___ -1 14.6334 124.132 4 6 295
1918175N11139 1918 37 WP MM NOT_NAMED 1918-06-28 09:00:00 NR 14.7552 123.880 main 92 92 __________P___ -1 14.7552 123.880 4 5 297
1918175N11139 1918 37 WP MM NOT_NAMED 1918-06-28 10:00:00 NR 14.8000 123.800 main 95 95 __________O___ -1 14.8000 123.800 4 6 301
1918175N11139 1918 37 WP MM NOT_NAMED 1918-06-28 12:00:00 NR 14.8999 123.630 main 105 104 __________P___ -1 14.8999 123.630 4 6 304
1918175N11139 1918 37 WP MM NOT_NAMED 1918-06-28 15:00:00 NR 15.0623 123.394 main 114 109 __________P___ -1 15.0623 123.394 4 6 308
1918175N11139 1918 37 WP MM NOT_NAMED 1918-06-28 18:00:00 NR 15.2398 123.176 main 116 123 __________P___ -1 15.2398 123.176 4 6 312
1918175N11139 1918 37 WP MM NOT_NAMED 1918-06-28 21:00:00 NR 15.4325 122.968 main 123 108 __________P___ -1 15.4325 122.968 4 6 315
1918175N11139 1918 37 WP MM NOT_NAMED 1918-06-28 22:00:00 NR 15.5000 122.900 main 108 92 __________O___ -1 15.5000 122.900 4 6 315
1918175N11139 1918 37 WP MM NOT_NAMED 1918-06-29 00:00:00 NR 15.6386 122.753 main 92 46 __________P___ -1 15.6386 122.753 4 6 316
1918175N11139 1918 37 WP MM NOT_NAMED 1918-06-29 03:00:00 NR 15.8591 122.539 main 46 15 __________P___ -1 15.8591 122.539 4 6 318
1918175N11139 1918 37 WP MM NOT_NAMED 1918-06-29 06:00:00 NR 16.0891 122.338 main 15 0 __________P___ -1 16.0891 122.338 4 6 322
1918175N11139 1918 37 WP MM NOT_NAMED 1918-06-29 09:00:00 NR 16.3225 122.155 main 0 0 __________P___ -1 16.3225 122.155 4 6 324
1918175N11139 1918 37 WP MM NOT_NAMED 1918-06-29 10:00:00 NR 16.4000 122.100 main 0 0 __________O___ -1 16.4000 122.100 4 5 324
1918175N11139 1918 37 WP MM NOT_NAMED 1918-06-29 12:00:00 NR 16.5053 122.012 main 0 0 __________P___ -1 16.5053 122.012 4 4 324
1918175N11139 1918 37 WP MM NOT_NAMED 1918-06-29 15:00:00 NR 16.6623 121.899 main 0 0 __________P___ -1 16.6623 121.899 4 4 329
1918175N11139 1918 37 WP MM NOT_NAMED 1918-06-29 18:00:00 NR 16.8655 121.788 main 0 0 __________P___ -1 16.8655 121.788 4 6 335
1918175N11139 1918 37 WP MM NOT_NAMED 1918-06-29 21:00:00 NR 17.1679 121.654 main 0 0 __________P___ -1 17.1679 121.654 4 7 337
1918175N11139 1918 37 WP MM NOT_NAMED 1918-06-29 22:00:00 NR 17.3000 121.600 main 0 0 __________O___ -1 17.3000 121.600 4 10 341
1918175N11139 1918 37 WP MM NOT_NAMED 1918-06-30 00:00:00 NR 17.6387 121.485 main 0 0 __________P___ -1 17.6387 121.485 4 12 342
1918175N11139 1918 37 WP MM NOT_NAMED 1918-06-30 03:00:00 NR 18.2542 121.282 main 0 0 __________P___ -1 18.2542 121.282 4 14 342
1918175N11139 1918 37 WP MM NOT_NAMED 1918-06-30 06:00:00 NR 18.9485 121.030 main 35 45 __________P___ -1 18.9485 121.030 4 15 339
1918175N11139 1918 37 WP MM NOT_NAMED 1918-06-30 09:00:00 NR 19.6656 120.719 main 123 123 __________P___ -1 19.6656 120.719 4 16 337
1918175N11139 1918 37 WP MM NOT_NAMED 1918-06-30 10:00:00 NR 19.9000 120.600 main 146 146 __________O___ -1 19.9000 120.600 4 16 333
1918175N11139 1918 37 WP MM NOT_NAMED 1918-06-30 12:00:00 NR 20.3591 120.341 main 172 130 __________P___ -1 20.3591 120.341 4 16 330
1918175N11139 1918 37 WP MM NOT_NAMED 1918-06-30 15:00:00 NR 21.0423 119.895 main 130 117 __________P___ -1 21.0423 119.895 4 16 326
1918175N11139 1918 37 WP MM NOT_NAMED 1918-06-30 18:00:00 NR 21.6827 119.400 main 128 128 __________P___ -1 21.6827 119.400 4 15 322
1918175N11139 1918 37 WP MM NOT_NAMED 1918-06-30 21:00:00 NR 22.2398 118.877 main 147 154 __________P___ -1 22.2398 118.877 4 15 318
1918175N11139 1918 37 WP MM NOT_NAMED 1918-06-30 22:00:00 NR 22.4000 118.700 main 160 138 __________O___ -1 22.4000 118.700 4 13 312
1918175N11139 1918 37 WP MM NOT_NAMED 1918-07-01 00:00:00 NR 22.6655 118.365 main 138 84 __________P___ -1 22.6655 118.365 4 12 306
1918175N11139 1918 37 WP MM NOT_NAMED 1918-07-01 03:00:00 NR 22.9757 117.851 main 84 39 __________P___ -1 22.9757 117.851 4 11 300
1918175N11139 1918 37 WP MM NOT_NAMED 1918-07-01 06:00:00 NR 23.2165 117.324 main 39 0 __________P___ -1 23.2165 117.324 4 11 295
1918175N11139 1918 37 WP MM NOT_NAMED 1918-07-01 09:00:00 NR 23.4286 116.783 main 0 0 __________P___ -1 23.4286 116.783 4 11 293
1918175N11139 1918 37 WP MM NOT_NAMED 1918-07-01 10:00:00 NR 23.5000 116.600 main 0 0 __________O___ -1 23.5000 116.600 4 11 294
1918175N11139 1918 37 WP MM NOT_NAMED 1918-07-01 12:00:00 NR 23.6504 116.228 main 0 0 __________P___ -1 23.6504 116.228 4 11 294
1918175N11139 1918 37 WP MM NOT_NAMED 1918-07-01 15:00:00 NR 23.8927 115.660 main 0 0 __________P___ -1 23.8927 115.660 4 12 295
1918175N11139 1918 37 WP MM NOT_NAMED 1918-07-01 18:00:00 NR 24.1489 115.081 main 0 0 __________P___ -1 24.1489 115.081 4 12 296
1918175N11139 1918 37 WP MM NOT_NAMED 1918-07-01 21:00:00 NR 24.4120 114.496 main 0 0 __________P___ -1 24.4120 114.496 4 12 296
1918175N11139 1918 37 WP MM NOT_NAMED 1918-07-01 22:00:00 NR 24.5000 114.300 main 0 __________O___ -1 24.5000 114.300 4 12 296

デジタル台風データ・検索

IBTrACS Databaseについて

本データベースは、米国NOAAが公開する1842年以降の世界の熱帯低気圧のベストトラックデータアーカイブInternational Best Track Archive for Climate Stewardship (IBTrACS)を、ウェブで閲覧しやすい形式に変換したものです。

最終更新日:2021-10-19